sensor_id;sensor_type;location;lat;lon;timestamp;temperature;humidity
32400;DHT22;45045;45.440;9.178;2023-08-07T00:00:32;27.50;47.10
32400;DHT22;45045;45.440;9.178;2023-08-07T00:02:57;27.50;45.20
32400;DHT22;45045;45.440;9.178;2023-08-07T00:05:23;27.50;46.70
32400;DHT22;45045;45.440;9.178;2023-08-07T00:07:49;27.40;46.10
32400;DHT22;45045;45.440;9.178;2023-08-07T00:10:14;27.40;44.90
32400;DHT22;45045;45.440;9.178;2023-08-07T00:12:40;27.40;44.70
32400;DHT22;45045;45.440;9.178;2023-08-07T00:15:06;27.30;47.10
32400;DHT22;45045;45.440;9.178;2023-08-07T00:17:32;27.40;47.60
32400;DHT22;45045;45.440;9.178;2023-08-07T00:19:58;27.40;45.20
32400;DHT22;45045;45.440;9.178;2023-08-07T00:22:24;27.30;44.90
32400;DHT22;45045;45.440;9.178;2023-08-07T00:24:50;27.30;46.00
32400;DHT22;45045;45.440;9.178;2023-08-07T00:27:16;27.30;46.60
32400;DHT22;45045;45.440;9.178;2023-08-07T00:29:42;27.20;46.20
32400;DHT22;45045;45.440;9.178;2023-08-07T00:32:08;27.20;44.80
32400;DHT22;45045;45.440;9.178;2023-08-07T00:34:34;27.10;45.60
32400;DHT22;45045;45.440;9.178;2023-08-07T00:37:00;27.10;46.70
32400;DHT22;45045;45.440;9.178;2023-08-07T00:39:25;27.10;46.10
32400;DHT22;45045;45.440;9.178;2023-08-07T00:41:51;27.10;46.60
32400;DHT22;45045;45.440;9.178;2023-08-07T00:44:17;27.10;47.30
32400;DHT22;45045;45.440;9.178;2023-08-07T00:46:43;27.20;47.00
32400;DHT22;45045;45.440;9.178;2023-08-07T00:49:10;27.10;46.30
32400;DHT22;45045;45.440;9.178;2023-08-07T00:51:37;27.20;45.90
32400;DHT22;45045;45.440;9.178;2023-08-07T00:54:05;27.10;45.10
32400;DHT22;45045;45.440;9.178;2023-08-07T00:56:32;27.10;46.70
32400;DHT22;45045;45.440;9.178;2023-08-07T00:58:58;27.00;45.50
32400;DHT22;45045;45.440;9.178;2023-08-07T01:01:26;27.00;46.30
32400;DHT22;45045;45.440;9.178;2023-08-07T01:03:53;27.00;46.90
32400;DHT22;45045;45.440;9.178;2023-08-07T01:06:19;27.10;46.90
32400;DHT22;45045;45.440;9.178;2023-08-07T01:08:45;27.10;47.10
32400;DHT22;45045;45.440;9.178;2023-08-07T01:19:23;27.00;47.50
32400;DHT22;45045;45.440;9.178;2023-08-07T01:22:14;27.00;46.20
32400;DHT22;45045;45.440;9.178;2023-08-07T01:24:42;27.00;47.60
32400;DHT22;45045;45.440;9.178;2023-08-07T01:32:19;27.00;45.60
32400;DHT22;45045;45.440;9.178;2023-08-07T01:34:48;27.00;47.20
32400;DHT22;45045;45.440;9.178;2023-08-07T01:37:15;27.00;48.00
32400;DHT22;45045;45.440;9.178;2023-08-07T01:39:43;26.90;47.80
32400;DHT22;45045;45.440;9.178;2023-08-07T01:42:09;26.90;48.20
32400;DHT22;45045;45.440;9.178;2023-08-07T01:44:36;26.90;47.60
32400;DHT22;45045;45.440;9.178;2023-08-07T01:47:02;26.90;48.20
32400;DHT22;45045;45.440;9.178;2023-08-07T01:49:28;26.80;47.20
32400;DHT22;45045;45.440;9.178;2023-08-07T01:51:54;26.90;47.90
32400;DHT22;45045;45.440;9.178;2023-08-07T01:54:19;26.80;47.80
32400;DHT22;45045;45.440;9.178;2023-08-07T01:56:45;26.90;47.50
32400;DHT22;45045;45.440;9.178;2023-08-07T01:59:11;26.90;47.90
32400;DHT22;45045;45.440;9.178;2023-08-07T02:01:36;26.90;47.80
32400;DHT22;45045;45.440;9.178;2023-08-07T02:04:02;26.90;47.50
32400;DHT22;45045;45.440;9.178;2023-08-07T02:06:28;26.80;46.90
32400;DHT22;45045;45.440;9.178;2023-08-07T02:08:54;26.90;47.70
32400;DHT22;45045;45.440;9.178;2023-08-07T02:11:20;26.90;47.40
32400;DHT22;45045;45.440;9.178;2023-08-07T02:13:45;26.90;47.90
32400;DHT22;45045;45.440;9.178;2023-08-07T02:16:11;26.90;48.00
32400;DHT22;45045;45.440;9.178;2023-08-07T02:18:37;26.80;45.80
32400;DHT22;45045;45.440;9.178;2023-08-07T02:21:02;26.80;47.70
32400;DHT22;45045;45.440;9.178;2023-08-07T02:23:28;26.80;48.00
32400;DHT22;45045;45.440;9.178;2023-08-07T02:25:54;26.70;45.80
32400;DHT22;45045;45.440;9.178;2023-08-07T02:28:20;26.70;47.30
32400;DHT22;45045;45.440;9.178;2023-08-07T02:30:46;26.70;48.20
32400;DHT22;45045;45.440;9.178;2023-08-07T02:33:16;26.70;48.20
32400;DHT22;45045;45.440;9.178;2023-08-07T02:35:42;26.70;48.30
32400;DHT22;45045;45.440;9.178;2023-08-07T02:38:08;26.70;48.10
32400;DHT22;45045;45.440;9.178;2023-08-07T02:40:33;26.70;48.40
32400;DHT22;45045;45.440;9.178;2023-08-07T02:42:59;26.60;47.40
32400;DHT22;45045;45.440;9.178;2023-08-07T02:45:25;26.70;48.20
32400;DHT22;45045;45.440;9.178;2023-08-07T02:47:51;26.60;48.20
32400;DHT22;45045;45.440;9.178;2023-08-07T02:50:17;26.70;48.40
32400;DHT22;45045;45.440;9.178;2023-08-07T02:52:42;26.60;48.40
32400;DHT22;45045;45.440;9.178;2023-08-07T02:55:08;26.60;48.10
32400;DHT22;45045;45.440;9.178;2023-08-07T02:57:34;26.60;48.10
32400;DHT22;45045;45.440;9.178;2023-08-07T03:00:00;26.60;47.40
32400;DHT22;45045;45.440;9.178;2023-08-07T03:02:26;26.60;48.30
32400;DHT22;45045;45.440;9.178;2023-08-07T03:04:51;26.60;48.20
32400;DHT22;45045;45.440;9.178;2023-08-07T03:07:17;26.70;48.40
32400;DHT22;45045;45.440;9.178;2023-08-07T03:09:45;26.60;47.80
32400;DHT22;45045;45.440;9.178;2023-08-07T03:12:12;26.60;48.30
32400;DHT22;45045;45.440;9.178;2023-08-07T03:14:38;26.60;48.30
32400;DHT22;45045;45.440;9.178;2023-08-07T03:17:04;26.60;48.30
32400;DHT22;45045;45.440;9.178;2023-08-07T03:19:30;26.60;48.40
32400;DHT22;45045;45.440;9.178;2023-08-07T03:21:56;26.60;48.30
32400;DHT22;45045;45.440;9.178;2023-08-07T03:24:21;26.50;47.70
32400;DHT22;45045;45.440;9.178;2023-08-07T03:26:47;26.40;47.50
32400;DHT22;45045;45.440;9.178;2023-08-07T03:29:14;26.50;48.60
32400;DHT22;45045;45.440;9.178;2023-08-07T03:31:40;26.50;48.50
32400;DHT22;45045;45.440;9.178;2023-08-07T03:34:05;26.40;47.70
32400;DHT22;45045;45.440;9.178;2023-08-07T03:36:31;26.30;48.30
32400;DHT22;45045;45.440;9.178;2023-08-07T03:38:57;26.30;48.00
32400;DHT22;45045;45.440;9.178;2023-08-07T03:41:22;26.30;46.60
32400;DHT22;45045;45.440;9.178;2023-08-07T03:43:48;26.20;46.80
32400;DHT22;45045;45.440;9.178;2023-08-07T03:46:14;26.20;48.10
32400;DHT22;45045;45.440;9.178;2023-08-07T03:48:39;26.30;47.10
32400;DHT22;45045;45.440;9.178;2023-08-07T03:51:05;26.30;49.20
32400;DHT22;45045;45.440;9.178;2023-08-07T03:53:33;26.30;49.10
32400;DHT22;45045;45.440;9.178;2023-08-07T03:55:59;26.30;46.30
32400;DHT22;45045;45.440;9.178;2023-08-07T03:58:25;26.30;49.10
32400;DHT22;45045;45.440;9.178;2023-08-07T04:00:51;26.30;47.00
32400;DHT22;45045;45.440;9.178;2023-08-07T04:03:21;26.30;49.00
32400;DHT22;45045;45.440;9.178;2023-08-07T04:05:51;26.30;46.80
32400;DHT22;45045;45.440;9.178;2023-08-07T04:08:16;26.20;48.60
32400;DHT22;45045;45.440;9.178;2023-08-07T04:10:42;26.20;48.80
32400;DHT22;45045;45.440;9.178;2023-08-07T04:13:08;26.20;49.50
32400;DHT22;45045;45.440;9.178;2023-08-07T04:15:33;26.20;49.30
32400;DHT22;45045;45.440;9.178;2023-08-07T04:17:59;26.30;48.10
32400;DHT22;45045;45.440;9.178;2023-08-07T04:20:26;26.20;48.30
32400;DHT22;45045;45.440;9.178;2023-08-07T04:22:52;26.20;49.10
32400;DHT22;45045;45.440;9.178;2023-08-07T04:25:17;26.20;48.00
32400;DHT22;45045;45.440;9.178;2023-08-07T04:27:43;26.10;49.50
32400;DHT22;45045;45.440;9.178;2023-08-07T04:30:09;26.10;46.30
32400;DHT22;45045;45.440;9.178;2023-08-07T04:32:34;26.10;49.30
32400;DHT22;45045;45.440;9.178;2023-08-07T04:35:00;26.20;49.40
32400;DHT22;45045;45.440;9.178;2023-08-07T04:37:26;26.20;48.30
32400;DHT22;45045;45.440;9.178;2023-08-07T04:39:52;26.20;48.20
32400;DHT22;45045;45.440;9.178;2023-08-07T04:42:17;26.10;49.60
32400;DHT22;45045;45.440;9.178;2023-08-07T04:44:43;26.20;50.30
32400;DHT22;45045;45.440;9.178;2023-08-07T04:47:09;26.20;47.60
32400;DHT22;45045;45.440;9.178;2023-08-07T04:49:34;26.20;49.60
32400;DHT22;45045;45.440;9.178;2023-08-07T04:52:00;26.20;49.80
32400;DHT22;45045;45.440;9.178;2023-08-07T04:54:25;26.10;49.80
32400;DHT22;45045;45.440;9.178;2023-08-07T04:56:51;26.10;48.20
32400;DHT22;45045;45.440;9.178;2023-08-07T04:59:16;26.10;48.70
32400;DHT22;45045;45.440;9.178;2023-08-07T05:01:42;26.10;49.50
32400;DHT22;45045;45.440;9.178;2023-08-07T05:04:09;26.00;48.00
32400;DHT22;45045;45.440;9.178;2023-08-07T05:06:35;26.00;49.10
32400;DHT22;45045;45.440;9.178;2023-08-07T05:09:00;25.90;49.70
32400;DHT22;45045;45.440;9.178;2023-08-07T05:11:26;25.90;49.30
32400;DHT22;45045;45.440;9.178;2023-08-07T05:13:52;26.00;49.70
32400;DHT22;45045;45.440;9.178;2023-08-07T05:16:17;26.00;48.10
32400;DHT22;45045;45.440;9.178;2023-08-07T05:18:44;26.00;50.10
32400;DHT22;45045;45.440;9.178;2023-08-07T05:21:10;26.00;49.30
32400;DHT22;45045;45.440;9.178;2023-08-07T05:23:35;26.00;48.70
32400;DHT22;45045;45.440;9.178;2023-08-07T05:26:01;26.00;49.50
32400;DHT22;45045;45.440;9.178;2023-08-07T05:28:27;26.00;50.10
32400;DHT22;45045;45.440;9.178;2023-08-07T05:30:53;26.10;50.10
32400;DHT22;45045;45.440;9.178;2023-08-07T05:33:18;26.10;50.00
32400;DHT22;45045;45.440;9.178;2023-08-07T05:35:44;26.10;49.80
32400;DHT22;45045;45.440;9.178;2023-08-07T05:38:10;26.10;50.80
32400;DHT22;45045;45.440;9.178;2023-08-07T05:40:35;26.10;50.00
32400;DHT22;45045;45.440;9.178;2023-08-07T05:43:02;26.10;49.00
32400;DHT22;45045;45.440;9.178;2023-08-07T05:45:28;26.00;48.60
32400;DHT22;45045;45.440;9.178;2023-08-07T05:47:53;26.10;50.00
32400;DHT22;45045;45.440;9.178;2023-08-07T05:50:19;26.00;49.90
32400;DHT22;45045;45.440;9.178;2023-08-07T05:52:45;26.00;50.10
32400;DHT22;45045;45.440;9.178;2023-08-07T05:55:11;26.10;50.50
32400;DHT22;45045;45.440;9.178;2023-08-07T05:57:36;26.10;49.10
32400;DHT22;45045;45.440;9.178;2023-08-07T06:00:02;26.10;50.40
32400;DHT22;45045;45.440;9.178;2023-08-07T06:02:28;26.00;50.50
32400;DHT22;45045;45.440;9.178;2023-08-07T06:04:54;26.00;51.60
32400;DHT22;45045;45.440;9.178;2023-08-07T06:07:19;26.10;52.70
32400;DHT22;45045;45.440;9.178;2023-08-07T06:09:45;26.10;52.30
32400;DHT22;45045;45.440;9.178;2023-08-07T06:12:11;26.10;51.90
32400;DHT22;45045;45.440;9.178;2023-08-07T06:14:37;26.20;51.80
32400;DHT22;45045;45.440;9.178;2023-08-07T06:17:04;26.20;51.40
32400;DHT22;45045;45.440;9.178;2023-08-07T06:19:29;26.20;51.20
32400;DHT22;45045;45.440;9.178;2023-08-07T06:21:55;26.20;51.10
32400;DHT22;45045;45.440;9.178;2023-08-07T06:24:21;26.20;51.10
32400;DHT22;45045;45.440;9.178;2023-08-07T06:26:47;26.20;51.10
32400;DHT22;45045;45.440;9.178;2023-08-07T06:29:13;26.20;51.10
32400;DHT22;45045;45.440;9.178;2023-08-07T06:31:39;26.20;50.90
32400;DHT22;45045;45.440;9.178;2023-08-07T06:34:05;26.20;51.00
32400;DHT22;45045;45.440;9.178;2023-08-07T06:36:31;26.20;51.00
32400;DHT22;45045;45.440;9.178;2023-08-07T06:38:56;26.20;50.90
32400;DHT22;45045;45.440;9.178;2023-08-07T06:41:22;26.20;50.80
32400;DHT22;45045;45.440;9.178;2023-08-07T06:43:48;26.20;50.40
32400;DHT22;45045;45.440;9.178;2023-08-07T06:46:15;26.30;49.60
32400;DHT22;45045;45.440;9.178;2023-08-07T06:48:40;26.30;49.80
32400;DHT22;45045;45.440;9.178;2023-08-07T06:51:06;26.20;49.10
32400;DHT22;45045;45.440;9.178;2023-08-07T06:53:32;26.20;49.80
32400;DHT22;45045;45.440;9.178;2023-08-07T06:55:57;26.30;50.10
32400;DHT22;45045;45.440;9.178;2023-08-07T06:58:23;26.30;50.00
32400;DHT22;45045;45.440;9.178;2023-08-07T07:00:48;26.30;50.20
32400;DHT22;45045;45.440;9.178;2023-08-07T07:03:14;26.30;48.60
32400;DHT22;45045;45.440;9.178;2023-08-07T07:05:40;26.40;49.70
32400;DHT22;45045;45.440;9.178;2023-08-07T07:08:08;26.30;47.70
32400;DHT22;45045;45.440;9.178;2023-08-07T07:10:34;26.20;47.80
32400;DHT22;45045;45.440;9.178;2023-08-07T07:13:00;26.20;47.20
32400;DHT22;45045;45.440;9.178;2023-08-07T07:15:25;26.20;46.40
32400;DHT22;45045;45.440;9.178;2023-08-07T07:17:51;26.20;48.50
32400;DHT22;45045;45.440;9.178;2023-08-07T07:20:17;26.40;49.70
32400;DHT22;45045;45.440;9.178;2023-08-07T07:22:42;26.50;49.50
32400;DHT22;45045;45.440;9.178;2023-08-07T07:25:08;26.50;49.60
32400;DHT22;45045;45.440;9.178;2023-08-07T07:27:34;26.50;49.30
32400;DHT22;45045;45.440;9.178;2023-08-07T07:30:00;26.40;49.10
32400;DHT22;45045;45.440;9.178;2023-08-07T07:32:26;26.50;47.20
32400;DHT22;45045;45.440;9.178;2023-08-07T07:34:51;26.50;47.00
32400;DHT22;45045;45.440;9.178;2023-08-07T07:37:17;26.60;46.60
32400;DHT22;45045;45.440;9.178;2023-08-07T07:39:43;26.50;46.30
32400;DHT22;45045;45.440;9.178;2023-08-07T07:42:09;26.50;45.00
32400;DHT22;45045;45.440;9.178;2023-08-07T07:44:34;26.60;45.10
32400;DHT22;45045;45.440;9.178;2023-08-07T07:47:02;26.60;45.70
32400;DHT22;45045;45.440;9.178;2023-08-07T07:49:27;26.60;44.20
32400;DHT22;45045;45.440;9.178;2023-08-07T07:51:53;26.60;46.50
32400;DHT22;45045;45.440;9.178;2023-08-07T07:54:19;26.60;47.80
32400;DHT22;45045;45.440;9.178;2023-08-07T07:56:44;26.60;46.70
32400;DHT22;45045;45.440;9.178;2023-08-07T07:59:11;26.60;47.80
32400;DHT22;45045;45.440;9.178;2023-08-07T08:01:37;26.70;49.00
32400;DHT22;45045;45.440;9.178;2023-08-07T08:04:03;26.70;46.80
32400;DHT22;45045;45.440;9.178;2023-08-07T08:06:28;26.70;49.30
32400;DHT22;45045;45.440;9.178;2023-08-07T08:08:56;26.70;45.80
32400;DHT22;45045;45.440;9.178;2023-08-07T08:11:21;26.80;46.30
32400;DHT22;45045;45.440;9.178;2023-08-07T08:13:47;26.80;47.10
32400;DHT22;45045;45.440;9.178;2023-08-07T08:16:13;26.90;46.80
32400;DHT22;45045;45.440;9.178;2023-08-07T08:18:38;26.80;47.20
32400;DHT22;45045;45.440;9.178;2023-08-07T08:21:04;26.80;48.40
32400;DHT22;45045;45.440;9.178;2023-08-07T08:23:30;26.90;46.50
32400;DHT22;45045;45.440;9.178;2023-08-07T08:25:55;26.90;47.40
32400;DHT22;45045;45.440;9.178;2023-08-07T08:28:21;26.90;47.50
32400;DHT22;45045;45.440;9.178;2023-08-07T08:30:48;26.90;48.00
32400;DHT22;45045;45.440;9.178;2023-08-07T08:33:13;26.90;46.40
32400;DHT22;45045;45.440;9.178;2023-08-07T08:35:40;27.00;45.00
32400;DHT22;45045;45.440;9.178;2023-08-07T08:38:06;27.00;44.20
32400;DHT22;45045;45.440;9.178;2023-08-07T08:40:32;27.00;44.30
32400;DHT22;45045;45.440;9.178;2023-08-07T08:43:01;27.10;43.80
32400;DHT22;45045;45.440;9.178;2023-08-07T08:45:27;27.10;43.00
32400;DHT22;45045;45.440;9.178;2023-08-07T08:47:56;27.10;42.70
32400;DHT22;45045;45.440;9.178;2023-08-07T08:50:23;27.10;44.60
32400;DHT22;45045;45.440;9.178;2023-08-07T08:52:51;27.10;44.10
32400;DHT22;45045;45.440;9.178;2023-08-07T08:55:19;27.20;46.00
32400;DHT22;45045;45.440;9.178;2023-08-07T08:57:46;27.20;42.80
32400;DHT22;45045;45.440;9.178;2023-08-07T09:00:14;27.30;42.30
32400;DHT22;45045;45.440;9.178;2023-08-07T09:02:50;27.40;41.90
32400;DHT22;45045;45.440;9.178;2023-08-07T09:05:18;27.50;41.50
32400;DHT22;45045;45.440;9.178;2023-08-07T09:07:44;27.50;42.20
32400;DHT22;45045;45.440;9.178;2023-08-07T09:10:13;27.60;42.20
32400;DHT22;45045;45.440;9.178;2023-08-07T09:13:06;27.60;43.70
32400;DHT22;45045;45.440;9.178;2023-08-07T09:15:36;27.50;44.70
32400;DHT22;45045;45.440;9.178;2023-08-07T09:18:06;27.50;41.60
32400;DHT22;45045;45.440;9.178;2023-08-07T09:20:34;27.50;44.40
32400;DHT22;45045;45.440;9.178;2023-08-07T09:23:00;27.60;42.50
32400;DHT22;45045;45.440;9.178;2023-08-07T09:25:29;27.70;42.90
32400;DHT22;45045;45.440;9.178;2023-08-07T09:27:55;27.70;41.20
32400;DHT22;45045;45.440;9.178;2023-08-07T09:30:29;27.80;41.10
32400;DHT22;45045;45.440;9.178;2023-08-07T09:32:57;27.70;40.70
32400;DHT22;45045;45.440;9.178;2023-08-07T09:35:23;27.70;44.30
32400;DHT22;45045;45.440;9.178;2023-08-07T09:37:49;27.80;40.80
32400;DHT22;45045;45.440;9.178;2023-08-07T09:40:15;27.80;44.20
32400;DHT22;45045;45.440;9.178;2023-08-07T09:42:42;27.70;42.60
32400;DHT22;45045;45.440;9.178;2023-08-07T09:45:24;27.80;43.00
32400;DHT22;45045;45.440;9.178;2023-08-07T09:50:23;28.00;41.80
32400;DHT22;45045;45.440;9.178;2023-08-07T09:52:49;28.00;41.20
32400;DHT22;45045;45.440;9.178;2023-08-07T09:55:15;28.00;43.20
32400;DHT22;45045;45.440;9.178;2023-08-07T09:57:44;28.00;43.50
32400;DHT22;45045;45.440;9.178;2023-08-07T10:00:10;28.00;40.00
32400;DHT22;45045;45.440;9.178;2023-08-07T10:02:38;28.10;40.50
32400;DHT22;45045;45.440;9.178;2023-08-07T10:05:07;28.10;42.20
32400;DHT22;45045;45.440;9.178;2023-08-07T10:07:34;28.20;41.00
32400;DHT22;45045;45.440;9.178;2023-08-07T10:10:00;28.30;40.50
32400;DHT22;45045;45.440;9.178;2023-08-07T10:12:27;28.30;42.00
32400;DHT22;45045;45.440;9.178;2023-08-07T10:14:54;28.30;41.10
32400;DHT22;45045;45.440;9.178;2023-08-07T10:17:21;28.30;41.40
32400;DHT22;45045;45.440;9.178;2023-08-07T10:19:48;28.20;42.80
32400;DHT22;45045;45.440;9.178;2023-08-07T10:22:15;28.20;42.20
32400;DHT22;45045;45.440;9.178;2023-08-07T10:24:42;28.20;41.60
32400;DHT22;45045;45.440;9.178;2023-08-07T10:27:11;28.20;41.80
32400;DHT22;45045;45.440;9.178;2023-08-07T10:29:38;28.40;41.80
32400;DHT22;45045;45.440;9.178;2023-08-07T10:32:06;28.50;42.10
32400;DHT22;45045;45.440;9.178;2023-08-07T10:34:37;28.50;42.10
32400;DHT22;45045;45.440;9.178;2023-08-07T10:37:06;28.50;42.70
32400;DHT22;45045;45.440;9.178;2023-08-07T10:39:32;28.30;43.40
32400;DHT22;45045;45.440;9.178;2023-08-07T10:41:58;28.50;41.00
32400;DHT22;45045;45.440;9.178;2023-08-07T10:44:26;28.60;39.40
32400;DHT22;45045;45.440;9.178;2023-08-07T10:46:53;28.60;40.60
32400;DHT22;45045;45.440;9.178;2023-08-07T10:49:32;28.70;41.00
32400;DHT22;45045;45.440;9.178;2023-08-07T10:52:09;28.70;39.60
32400;DHT22;45045;45.440;9.178;2023-08-07T10:54:40;28.70;42.70
32400;DHT22;45045;45.440;9.178;2023-08-07T10:57:16;28.60;43.10
32400;DHT22;45045;45.440;9.178;2023-08-07T11:02:26;28.70;40.60
32400;DHT22;45045;45.440;9.178;2023-08-07T11:04:53;28.90;39.20
32400;DHT22;45045;45.440;9.178;2023-08-07T11:07:26;28.90;39.80
32400;DHT22;45045;45.440;9.178;2023-08-07T11:09:53;28.90;40.90
32400;DHT22;45045;45.440;9.178;2023-08-07T11:12:19;29.10;38.60
32400;DHT22;45045;45.440;9.178;2023-08-07T11:14:45;29.20;39.30
32400;DHT22;45045;45.440;9.178;2023-08-07T11:17:12;29.10;39.50
32400;DHT22;45045;45.440;9.178;2023-08-07T11:19:38;29.10;39.90
32400;DHT22;45045;45.440;9.178;2023-08-07T11:22:04;29.10;38.80
32400;DHT22;45045;45.440;9.178;2023-08-07T11:24:30;29.20;40.20
32400;DHT22;45045;45.440;9.178;2023-08-07T11:26:56;29.20;39.60
32400;DHT22;45045;45.440;9.178;2023-08-07T11:29:24;29.30;38.00
32400;DHT22;45045;45.440;9.178;2023-08-07T11:31:51;29.40;39.00
32400;DHT22;45045;45.440;9.178;2023-08-07T11:34:17;29.50;37.50
32400;DHT22;45045;45.440;9.178;2023-08-07T11:36:44;29.50;38.50
32400;DHT22;45045;45.440;9.178;2023-08-07T11:39:10;29.50;37.30
32400;DHT22;45045;45.440;9.178;2023-08-07T11:41:36;29.50;37.40
32400;DHT22;45045;45.440;9.178;2023-08-07T11:44:02;29.50;38.70
32400;DHT22;45045;45.440;9.178;2023-08-07T11:46:28;29.40;41.40
32400;DHT22;45045;45.440;9.178;2023-08-07T11:48:56;29.40;39.20
32400;DHT22;45045;45.440;9.178;2023-08-07T11:51:22;29.40;38.70
32400;DHT22;45045;45.440;9.178;2023-08-07T11:53:48;29.30;41.60
32400;DHT22;45045;45.440;9.178;2023-08-07T11:56:14;29.30;39.60
32400;DHT22;45045;45.440;9.178;2023-08-07T11:58:44;29.30;40.80
32400;DHT22;45045;45.440;9.178;2023-08-07T12:01:15;29.30;39.20
32400;DHT22;45045;45.440;9.178;2023-08-07T12:03:50;29.40;39.90
32400;DHT22;45045;45.440;9.178;2023-08-07T12:06:16;29.50;39.20
32400;DHT22;45045;45.440;9.178;2023-08-07T12:08:42;29.60;39.00
32400;DHT22;45045;45.440;9.178;2023-08-07T12:11:09;29.60;38.60
32400;DHT22;45045;45.440;9.178;2023-08-07T12:13:43;29.50;38.80
32400;DHT22;45045;45.440;9.178;2023-08-07T12:16:11;29.50;40.20
32400;DHT22;45045;45.440;9.178;2023-08-07T12:18:45;29.50;41.30
32400;DHT22;45045;45.440;9.178;2023-08-07T12:21:18;29.50;38.30
32400;DHT22;45045;45.440;9.178;2023-08-07T12:23:50;29.70;37.10
32400;DHT22;45045;45.440;9.178;2023-08-07T12:26:16;29.80;36.30
32400;DHT22;45045;45.440;9.178;2023-08-07T12:28:42;29.60;40.80
32400;DHT22;45045;45.440;9.178;2023-08-07T12:31:07;29.70;39.10
32400;DHT22;45045;45.440;9.178;2023-08-07T12:33:33;29.60;41.00
32400;DHT22;45045;45.440;9.178;2023-08-07T12:36:00;29.70;37.50
32400;DHT22;45045;45.440;9.178;2023-08-07T12:38:26;29.80;37.60
32400;DHT22;45045;45.440;9.178;2023-08-07T12:40:52;29.90;38.50
32400;DHT22;45045;45.440;9.178;2023-08-07T12:43:18;29.90;37.70
32400;DHT22;45045;45.440;9.178;2023-08-07T12:45:45;29.70;40.30
32400;DHT22;45045;45.440;9.178;2023-08-07T12:48:11;29.70;38.10
32400;DHT22;45045;45.440;9.178;2023-08-07T12:50:37;29.80;38.40
32400;DHT22;45045;45.440;9.178;2023-08-07T12:53:03;29.80;37.80
32400;DHT22;45045;45.440;9.178;2023-08-07T12:55:28;30.00;38.20
32400;DHT22;45045;45.440;9.178;2023-08-07T12:57:55;30.00;37.90
32400;DHT22;45045;45.440;9.178;2023-08-07T13:00:21;30.00;38.40
32400;DHT22;45045;45.440;9.178;2023-08-07T13:02:49;30.00;37.80
32400;DHT22;45045;45.440;9.178;2023-08-07T13:05:15;30.00;36.50
32400;DHT22;45045;45.440;9.178;2023-08-07T13:07:42;30.10;36.50
32400;DHT22;45045;45.440;9.178;2023-08-07T13:10:10;30.10;38.00
32400;DHT22;45045;45.440;9.178;2023-08-07T13:12:38;30.20;37.20
32400;DHT22;45045;45.440;9.178;2023-08-07T13:15:05;30.30;35.40
32400;DHT22;45045;45.440;9.178;2023-08-07T13:17:31;30.20;35.50
32400;DHT22;45045;45.440;9.178;2023-08-07T13:19:58;30.30;34.90
32400;DHT22;45045;45.440;9.178;2023-08-07T13:22:24;30.30;36.90
32400;DHT22;45045;45.440;9.178;2023-08-07T13:24:50;30.30;38.30
32400;DHT22;45045;45.440;9.178;2023-08-07T13:27:16;30.20;35.40
32400;DHT22;45045;45.440;9.178;2023-08-07T13:29:42;30.30;36.50
32400;DHT22;45045;45.440;9.178;2023-08-07T13:32:07;30.30;38.20
32400;DHT22;45045;45.440;9.178;2023-08-07T13:34:36;30.20;38.00
32400;DHT22;45045;45.440;9.178;2023-08-07T13:37:04;30.20;37.50
32400;DHT22;45045;45.440;9.178;2023-08-07T13:39:29;30.30;36.10
32400;DHT22;45045;45.440;9.178;2023-08-07T13:41:55;30.40;34.90
32400;DHT22;45045;45.440;9.178;2023-08-07T13:44:21;30.40;36.10
32400;DHT22;45045;45.440;9.178;2023-08-07T13:46:48;30.20;37.80
32400;DHT22;45045;45.440;9.178;2023-08-07T13:49:14;30.20;35.30
32400;DHT22;45045;45.440;9.178;2023-08-07T13:51:40;30.20;38.40
32400;DHT22;45045;45.440;9.178;2023-08-07T13:54:06;30.20;37.40
32400;DHT22;45045;45.440;9.178;2023-08-07T13:56:33;30.30;36.80
32400;DHT22;45045;45.440;9.178;2023-08-07T13:58:59;30.30;36.10
32400;DHT22;45045;45.440;9.178;2023-08-07T14:01:25;30.20;39.20
32400;DHT22;45045;45.440;9.178;2023-08-07T14:03:51;30.20;39.50
32400;DHT22;45045;45.440;9.178;2023-08-07T14:06:18;30.20;37.80
32400;DHT22;45045;45.440;9.178;2023-08-07T14:08:44;30.30;38.40
32400;DHT22;45045;45.440;9.178;2023-08-07T14:11:09;30.30;37.30
32400;DHT22;45045;45.440;9.178;2023-08-07T14:13:35;30.40;36.60
32400;DHT22;45045;45.440;9.178;2023-08-07T14:16:01;30.40;37.10
32400;DHT22;45045;45.440;9.178;2023-08-07T14:18:26;30.60;37.20
32400;DHT22;45045;45.440;9.178;2023-08-07T14:20:52;30.70;36.20
32400;DHT22;45045;45.440;9.178;2023-08-07T14:23:18;30.60;35.70
32400;DHT22;45045;45.440;9.178;2023-08-07T14:25:44;30.70;37.70
32400;DHT22;45045;45.440;9.178;2023-08-07T14:28:10;30.70;36.80
32400;DHT22;45045;45.440;9.178;2023-08-07T14:30:36;30.80;35.80
32400;DHT22;45045;45.440;9.178;2023-08-07T14:33:02;30.70;36.30
32400;DHT22;45045;45.440;9.178;2023-08-07T14:35:28;30.80;35.40
32400;DHT22;45045;45.440;9.178;2023-08-07T14:37:53;30.70;36.40
32400;DHT22;45045;45.440;9.178;2023-08-07T14:40:19;30.70;35.50
32400;DHT22;45045;45.440;9.178;2023-08-07T14:42:45;30.80;36.10
32400;DHT22;45045;45.440;9.178;2023-08-07T14:45:11;30.80;36.20
32400;DHT22;45045;45.440;9.178;2023-08-07T14:47:36;30.80;35.40
32400;DHT22;45045;45.440;9.178;2023-08-07T14:50:02;30.90;35.90
32400;DHT22;45045;45.440;9.178;2023-08-07T14:52:28;31.00;35.60
32400;DHT22;45045;45.440;9.178;2023-08-07T14:54:54;31.00;35.60
32400;DHT22;45045;45.440;9.178;2023-08-07T14:57:22;31.00;35.60
32400;DHT22;45045;45.440;9.178;2023-08-07T14:59:48;30.80;37.60
32400;DHT22;45045;45.440;9.178;2023-08-07T15:02:14;30.80;35.30
32400;DHT22;45045;45.440;9.178;2023-08-07T15:04:39;30.90;35.80
32400;DHT22;45045;45.440;9.178;2023-08-07T15:07:05;30.90;36.40
32400;DHT22;45045;45.440;9.178;2023-08-07T15:09:31;31.00;36.70
32400;DHT22;45045;45.440;9.178;2023-08-07T15:11:57;31.00;36.80
32400;DHT22;45045;45.440;9.178;2023-08-07T15:14:22;30.90;38.30
32400;DHT22;45045;45.440;9.178;2023-08-07T15:16:48;30.90;37.20
32400;DHT22;45045;45.440;9.178;2023-08-07T15:19:14;30.90;35.30
32400;DHT22;45045;45.440;9.178;2023-08-07T15:21:39;31.00;35.40
32400;DHT22;45045;45.440;9.178;2023-08-07T15:24:05;31.10;34.90
32400;DHT22;45045;45.440;9.178;2023-08-07T15:26:31;31.20;35.50
32400;DHT22;45045;45.440;9.178;2023-08-07T15:28:57;31.10;36.30
32400;DHT22;45045;45.440;9.178;2023-08-07T15:31:22;31.00;35.30
32400;DHT22;45045;45.440;9.178;2023-08-07T15:33:48;31.00;36.10
32400;DHT22;45045;45.440;9.178;2023-08-07T15:36:16;30.90;37.70
32400;DHT22;45045;45.440;9.178;2023-08-07T15:38:42;30.80;39.50
32400;DHT22;45045;45.440;9.178;2023-08-07T15:41:10;30.80;37.10
32400;DHT22;45045;45.440;9.178;2023-08-07T15:43:36;30.80;37.00